createdAt,value
2022-09-04T00:01:57.910Z,17.21
2022-09-04T00:05:09.600Z,17.15
2022-09-04T00:08:05.551Z,17.18
2022-09-04T00:11:08.073Z,17.12
2022-09-04T00:13:43.829Z,17.07
2022-09-04T00:16:28.738Z,16.99
2022-09-04T00:19:19.221Z,16.92
2022-09-04T00:22:02.738Z,16.82
2022-09-04T00:24:40.592Z,16.82
2022-09-04T00:27:30.246Z,16.95
2022-09-04T00:30:07.478Z,17.14
2022-09-04T00:33:19.405Z,17.17
2022-09-04T00:36:02.706Z,17.18
2022-09-04T00:38:58.788Z,17.09
2022-09-04T00:41:38.992Z,17.09
2022-09-04T00:44:53.065Z,17.13
2022-09-04T00:47:48.790Z,17.12
2022-09-04T00:50:43.599Z,17.02
2022-09-04T00:53:31.312Z,17.11
2022-09-04T00:56:41.307Z,17.30
2022-09-04T00:59:22.013Z,17.49
2022-09-04T01:01:51.892Z,17.52
2022-09-04T01:04:43.591Z,17.61
2022-09-04T01:07:23.990Z,17.58
2022-09-04T01:10:23.234Z,17.31
2022-09-04T01:13:19.015Z,16.98
2022-09-04T01:15:57.454Z,16.82
2022-09-04T01:18:35.421Z,16.60
2022-09-04T01:21:20.433Z,16.58
2022-09-04T01:24:09.021Z,16.46
2022-09-04T01:26:50.537Z,16.38
2022-09-04T01:29:28.447Z,16.34
2022-09-04T01:32:36.218Z,16.19
2022-09-04T01:35:24.246Z,16.18
2022-09-04T01:38:14.584Z,16.16
2022-09-04T01:40:47.153Z,16.12
2022-09-04T01:43:18.654Z,16.06
2022-09-04T01:46:29.529Z,16.07
2022-09-04T01:49:31.628Z,15.96
2022-09-04T01:52:23.413Z,15.97
2022-09-04T01:55:08.037Z,15.77
2022-09-04T01:58:04.791Z,15.87
2022-09-04T02:01:09.197Z,15.83
2022-09-04T02:03:54.209Z,15.80
2022-09-04T02:06:40.908Z,15.67
2022-09-04T02:10:15.599Z,15.75
2022-09-04T02:13:10.294Z,15.56
2022-09-04T02:15:59.101Z,15.68
2022-09-04T02:18:51.243Z,15.65
2022-09-04T02:21:48.641Z,15.68
2022-09-04T02:24:35.922Z,15.56
2022-09-04T02:27:09.574Z,15.64
2022-09-04T02:29:49.372Z,15.61
2022-09-04T02:32:57.085Z,15.58
2022-09-04T02:35:56.266Z,15.54
2022-09-04T02:38:47.061Z,15.48
2022-09-04T02:41:42.812Z,15.53
2022-09-04T02:44:49.348Z,15.41
2022-09-04T02:48:09.925Z,15.42
2022-09-04T02:51:23.330Z,15.23
2022-09-04T02:55:00.112Z,15.23
2022-09-04T02:58:14.888Z,15.15
2022-09-04T03:00:54.320Z,15.17
2022-09-04T03:03:57.921Z,15.15
2022-09-04T03:06:49.918Z,15.13
2022-09-04T03:09:54.487Z,15.11
2022-09-04T03:12:53.153Z,14.97
2022-09-04T03:15:44.977Z,14.97
2022-09-04T03:18:35.256Z,14.79
2022-09-04T03:21:21.216Z,14.76
2022-09-04T03:24:00.152Z,14.73
2022-09-04T03:27:04.749Z,14.77
2022-09-04T03:29:51.358Z,14.67
2022-09-04T03:32:29.370Z,14.61
2022-09-04T03:35:47.208Z,14.67
2022-09-04T03:38:45.312Z,14.58
2022-09-04T03:41:16.594Z,14.53
2022-09-04T03:44:10.660Z,14.57
2022-09-04T03:47:11.757Z,14.47
2022-09-04T03:50:00.066Z,14.39
2022-09-04T03:52:57.476Z,14.39
2022-09-04T03:56:06.975Z,14.36
2022-09-04T03:59:05.613Z,14.32
2022-09-04T04:02:26.301Z,14.32
2022-09-04T04:05:03.085Z,14.21
2022-09-04T04:07:58.188Z,14.31
2022-09-04T04:10:57.054Z,14.31
2022-09-04T04:14:19.966Z,14.31
2022-09-04T04:17:23.328Z,14.31
2022-09-04T04:20:46.901Z,14.29
2022-09-04T04:23:23.043Z,14.26
2022-09-04T04:26:40.753Z,14.13
2022-09-04T04:29:55.340Z,14.19
2022-09-04T04:32:59.795Z,14.21
2022-09-04T04:36:20.433Z,14.20
2022-09-04T04:39:32.562Z,14.18
2022-09-04T04:42:17.243Z,14.05
2022-09-04T04:45:34.029Z,14.14
2022-09-04T04:48:36.350Z,14.13
2022-09-04T04:51:13.185Z,14.10
2022-09-04T04:54:15.486Z,14.03
2022-09-04T04:57:02.628Z,14.10
2022-09-04T04:59:44.814Z,14.10
2022-09-04T05:02:30.589Z,14.12
2022-09-04T05:05:24.305Z,14.09
2022-09-04T05:08:16.112Z,13.97
2022-09-04T05:11:12.912Z,13.95
2022-09-04T05:13:53.378Z,13.94
2022-09-04T05:17:09.848Z,14.08
2022-09-04T05:20:27.995Z,14.13
2022-09-04T05:23:35.426Z,14.09
2022-09-04T05:26:39.585Z,14.27
2022-09-04T05:29:40.993Z,14.34
2022-09-04T05:32:33.125Z,14.29
2022-09-04T05:35:23.248Z,14.53
2022-09-04T05:38:10.868Z,14.57
2022-09-04T05:41:36.606Z,14.64
2022-09-04T05:44:18.529Z,14.83
2022-09-04T05:47:38.754Z,14.95
2022-09-04T05:50:30.959Z,15.09
2022-09-04T05:53:16.113Z,15.22
2022-09-04T05:56:17.453Z,15.34
2022-09-04T05:59:06.041Z,15.41
2022-09-04T06:01:56.222Z,15.45
2022-09-04T06:05:10.735Z,15.56
2022-09-04T06:07:59.618Z,15.62
2022-09-04T06:10:46.399Z,15.71
2022-09-04T06:13:33.290Z,15.82
2022-09-04T06:16:28.238Z,15.99
2022-09-04T06:19:20.597Z,16.12
2022-09-04T06:22:29.656Z,16.09
2022-09-04T06:25:21.322Z,16.41
2022-09-04T06:28:18.430Z,16.54
2022-09-04T06:31:19.628Z,16.67
2022-09-04T06:34:36.590Z,16.77
2022-09-04T06:37:27.870Z,16.86
2022-09-04T06:40:09.081Z,16.96
2022-09-04T06:43:16.030Z,17.03
2022-09-04T06:46:16.387Z,17.08
2022-09-04T06:49:01.827Z,17.28
2022-09-04T06:52:19.897Z,17.56
2022-09-04T06:55:06.727Z,17.80
2022-09-04T06:57:57.687Z,17.97
2022-09-04T07:00:25.314Z,18.09
2022-09-04T07:03:42.409Z,18.15
2022-09-04T07:06:19.322Z,18.33
2022-09-04T07:09:09.205Z,18.42
2022-09-04T07:11:47.960Z,18.44
2022-09-04T07:15:12.472Z,18.49
2022-09-04T07:18:22.525Z,18.62
2022-09-04T07:21:22.550Z,18.77
2022-09-04T07:24:18.026Z,18.96
2022-09-04T07:27:26.786Z,19.10
2022-09-04T07:30:05.886Z,19.23
2022-09-04T07:32:47.844Z,19.41
2022-09-04T07:35:34.672Z,19.63
2022-09-04T07:38:35.795Z,19.75
2022-09-04T07:41:17.844Z,19.87
2022-09-04T07:44:13.073Z,20.02
2022-09-04T07:47:12.691Z,20.09
2022-09-04T07:50:17.397Z,20.12
2022-09-04T07:53:19.815Z,20.20
2022-09-04T07:56:00.420Z,20.35
2022-09-04T07:59:03.564Z,20.64
2022-09-04T08:01:52.774Z,20.91
2022-09-04T08:04:48.757Z,21.06
2022-09-04T08:07:41.310Z,21.18
2022-09-04T08:10:35.819Z,21.37
2022-09-04T08:13:43.094Z,21.58
2022-09-04T08:16:39.396Z,21.77
2022-09-04T08:19:47.107Z,21.73
2022-09-04T08:22:48.329Z,21.78
2022-09-04T08:26:03.039Z,21.95
2022-09-04T08:28:57.013Z,22.09
2022-09-04T08:31:47.284Z,22.11
2022-09-04T08:34:48.250Z,22.14
2022-09-04T08:37:59.126Z,22.28
2022-09-04T08:41:00.000Z,22.45
2022-09-04T08:44:00.445Z,22.62
2022-09-04T08:47:14.091Z,22.72
2022-09-04T08:50:23.779Z,23.04
2022-09-04T08:53:05.855Z,23.07
2022-09-04T08:56:03.768Z,23.20
2022-09-04T08:58:54.194Z,23.31
2022-09-04T09:01:58.343Z,23.46
2022-09-04T09:05:19.468Z,23.88
2022-09-04T09:08:31.778Z,24.20
2022-09-04T09:11:21.369Z,24.44
2022-09-04T09:14:07.001Z,24.55
2022-09-04T09:17:03.141Z,24.66
2022-09-04T09:20:01.031Z,24.91
2022-09-04T09:23:30.165Z,25.07
2022-09-04T09:26:31.121Z,25.42
2022-09-04T09:29:23.514Z,25.58
2022-09-04T09:32:35.678Z,25.66
2022-09-04T09:35:09.102Z,25.77
2022-09-04T09:38:07.009Z,25.92
2022-09-04T09:41:23.937Z,26.04
2022-09-04T09:44:15.349Z,26.26
2022-09-04T09:47:08.183Z,26.48
2022-09-04T09:50:20.875Z,26.53
2022-09-04T09:53:12.403Z,26.50
2022-09-04T09:55:51.466Z,26.60
2022-09-04T09:58:49.336Z,26.60
2022-09-04T10:01:51.657Z,26.33
2022-09-04T10:04:53.134Z,26.17
2022-09-04T10:07:31.851Z,26.43
2022-09-04T10:10:17.192Z,26.57
2022-09-04T10:13:19.626Z,26.94
2022-09-04T10:15:55.654Z,27.06
2022-09-04T10:18:48.678Z,27.07
2022-09-04T10:22:09.043Z,27.13
2022-09-04T10:25:13.927Z,27.00
2022-09-04T10:28:08.710Z,27.38
2022-09-04T10:31:26.992Z,27.45
2022-09-04T10:34:36.976Z,27.66
2022-09-04T10:37:47.658Z,27.96
2022-09-04T10:40:39.712Z,28.07
2022-09-04T10:43:38.061Z,28.17
2022-09-04T10:46:35.882Z,28.29
2022-09-04T10:50:06.127Z,28.24
2022-09-04T10:53:09.212Z,28.09
2022-09-04T10:55:50.962Z,28.34
2022-09-04T10:58:48.682Z,28.58
2022-09-04T11:01:35.656Z,28.61
2022-09-04T11:04:13.295Z,28.57
2022-09-04T11:07:11.411Z,28.64
2022-09-04T11:09:56.525Z,28.52
2022-09-04T11:12:50.840Z,28.76
2022-09-04T11:15:33.354Z,28.79
2022-09-04T11:18:43.796Z,28.87
2022-09-04T11:21:54.501Z,29.01
2022-09-04T11:25:02.228Z,29.05
2022-09-04T11:27:49.320Z,29.22
2022-09-04T11:30:36.442Z,29.28
2022-09-04T11:33:37.304Z,29.41
2022-09-04T11:36:50.597Z,29.37
2022-09-04T11:39:55.097Z,29.69
2022-09-04T11:42:33.906Z,29.94
2022-09-04T11:45:27.150Z,29.99
2022-09-04T11:48:32.696Z,29.92
2022-09-04T11:51:40.175Z,29.75
2022-09-04T11:54:53.412Z,29.54
2022-09-04T11:57:51.432Z,29.68
2022-09-04T12:00:20.311Z,29.80
2022-09-04T12:03:11.005Z,30.06
2022-09-04T12:06:02.579Z,30.09
2022-09-04T12:08:38.632Z,30.19
2022-09-04T12:11:44.397Z,30.15
2022-09-04T12:14:41.007Z,30.21
2022-09-04T12:17:33.621Z,30.31
2022-09-04T12:20:37.432Z,30.50
2022-09-04T12:23:32.005Z,30.44
2022-09-04T12:26:29.112Z,30.44
2022-09-04T12:29:47.330Z,30.62
2022-09-04T12:33:08.666Z,30.85
2022-09-04T12:36:13.820Z,30.89
2022-09-04T12:39:21.107Z,30.93
2022-09-04T12:42:33.654Z,31.01
2022-09-04T12:46:04.332Z,31.20
2022-09-04T12:48:51.521Z,31.05
2022-09-04T12:51:24.180Z,30.76
2022-09-04T12:54:29.302Z,30.82
2022-09-04T12:57:36.471Z,30.66
2022-09-04T13:00:13.476Z,30.71
2022-09-04T13:02:57.459Z,30.90
2022-09-04T13:06:06.896Z,31.20
2022-09-04T13:09:05.309Z,31.19
2022-09-04T13:12:11.977Z,31.07
2022-09-04T13:15:13.424Z,30.95
2022-09-04T13:18:14.242Z,30.88
2022-09-04T13:21:02.011Z,30.97
2022-09-04T13:24:06.670Z,31.06
2022-09-04T13:27:10.233Z,31.11
2022-09-04T13:30:09.544Z,30.84
2022-09-04T13:33:24.288Z,30.76
2022-09-04T13:36:07.248Z,30.81
2022-09-04T13:39:27.039Z,31.06
2022-09-04T13:42:05.499Z,31.24
2022-09-04T13:45:07.848Z,31.33
2022-09-04T13:47:56.464Z,31.39
2022-09-04T13:50:46.626Z,31.58
2022-09-04T13:53:57.593Z,31.73
2022-09-04T13:56:35.456Z,31.97
2022-09-04T13:59:09.726Z,32.06
2022-09-04T14:01:49.358Z,32.09
2022-09-04T14:04:30.906Z,32.00
2022-09-04T14:07:06.135Z,31.84
2022-09-04T14:09:41.530Z,31.63
2022-09-04T14:12:36.773Z,31.53
2022-09-04T14:15:32.799Z,31.28
2022-09-04T14:18:16.909Z,31.34
2022-09-04T14:21:01.551Z,31.31
2022-09-04T14:23:56.534Z,31.49
2022-09-04T14:26:41.052Z,31.44
2022-09-04T14:29:37.499Z,31.24
2022-09-04T14:32:32.174Z,31.01
2022-09-04T14:35:31.351Z,31.05
2022-09-04T14:38:32.653Z,31.30
2022-09-04T14:41:36.242Z,31.44
2022-09-04T14:44:12.913Z,31.41
2022-09-04T14:47:08.032Z,31.22
2022-09-04T14:49:47.671Z,31.24
2022-09-04T14:52:30.981Z,31.30
2022-09-04T14:54:58.162Z,31.43
2022-09-04T14:57:45.410Z,31.13
2022-09-04T15:00:20.098Z,31.11
2022-09-04T15:03:17.498Z,31.02
2022-09-04T15:05:59.071Z,30.80
2022-09-04T15:08:36.778Z,30.55
2022-09-04T15:11:31.883Z,30.54
2022-09-04T15:14:05.074Z,30.88
2022-09-04T15:16:32.218Z,31.16
2022-09-04T15:19:12.179Z,31.23
2022-09-04T15:21:54.688Z,31.26
2022-09-04T15:24:34.378Z,31.23
2022-09-04T15:27:40.728Z,31.21
2022-09-04T15:30:17.330Z,31.02
2022-09-04T15:32:45.359Z,30.85
2022-09-04T15:35:28.345Z,30.97
2022-09-04T15:38:22.844Z,30.89
2022-09-04T15:41:15.726Z,30.62
2022-09-04T15:43:51.786Z,30.31
2022-09-04T15:46:26.348Z,30.28
2022-09-04T15:49:18.722Z,30.32
2022-09-04T15:52:25.744Z,30.36
2022-09-04T15:55:24.924Z,30.20
2022-09-04T15:58:16.879Z,30.01
2022-09-04T16:01:17.128Z,29.81
2022-09-04T16:04:12.806Z,29.60
2022-09-04T16:07:03.665Z,29.48
2022-09-04T16:09:59.355Z,29.47
2022-09-04T16:12:49.055Z,29.14
2022-09-04T16:15:55.340Z,29.04
2022-09-04T16:18:46.665Z,28.78
2022-09-04T16:22:04.880Z,28.63
2022-09-04T16:24:46.742Z,28.57
2022-09-04T16:27:22.408Z,28.55
2022-09-04T16:30:02.812Z,28.31
2022-09-04T16:32:34.437Z,28.22
2022-09-04T16:35:09.525Z,28.20
2022-09-04T16:38:05.257Z,28.23
2022-09-04T16:40:40.826Z,28.26
2022-09-04T16:43:21.606Z,28.25
2022-09-04T16:46:27.844Z,28.18
2022-09-04T16:49:09.905Z,27.94
2022-09-04T16:52:07.442Z,27.87
2022-09-04T16:54:49.126Z,27.93
2022-09-04T16:57:21.513Z,27.90
2022-09-04T16:59:55.775Z,27.77
2022-09-04T17:02:41.923Z,27.74
2022-09-04T17:05:35.744Z,27.70
2022-09-04T17:08:19.285Z,27.52
2022-09-04T17:11:09.393Z,27.38
2022-09-04T17:13:53.076Z,27.33
2022-09-04T17:16:25.294Z,27.22
2022-09-04T17:18:55.481Z,27.15
2022-09-04T17:28:48.762Z,27.15
2022-09-04T17:29:02.019Z,27.05
2022-09-04T17:29:14.176Z,27.09
2022-09-04T17:31:56.129Z,27.05
2022-09-04T17:40:48.266Z,27.00
2022-09-04T17:40:53.757Z,26.84
2022-09-04T17:41:32.379Z,26.68
2022-09-04T17:44:03.921Z,26.61
2022-09-04T17:46:50.201Z,26.53
2022-09-04T17:49:26.650Z,26.37
2022-09-04T17:52:03.088Z,26.42
2022-09-04T17:54:33.361Z,26.36
2022-09-04T17:57:43.716Z,26.29
2022-09-04T18:00:20.539Z,26.26
2022-09-04T18:04:00.172Z,26.15
2022-09-04T18:06:44.125Z,26.01
2022-09-04T18:09:52.643Z,26.05
2022-09-04T18:12:39.992Z,25.96
2022-09-04T18:15:33.504Z,25.90
2022-09-04T18:18:25.089Z,25.87
2022-09-04T18:21:19.282Z,25.80
2022-09-04T18:24:13.427Z,25.65
2022-09-04T18:27:11.563Z,25.67
2022-09-04T18:30:57.237Z,25.50
2022-09-04T18:37:24.549Z,25.39
2022-09-04T18:37:26.721Z,25.49
2022-09-04T18:39:12.434Z,25.33
2022-09-04T18:48:15.982Z,25.30
2022-09-04T18:50:25.505Z,25.20
2022-09-04T18:50:28.112Z,25.10
2022-09-04T18:53:57.528Z,25.03
2022-09-04T18:56:35.344Z,24.96
2022-09-04T18:59:20.342Z,24.79
2022-09-04T19:02:04.470Z,24.85
2022-09-04T19:04:44.796Z,24.76
2022-09-04T19:07:41.107Z,24.59
2022-09-04T19:10:23.451Z,24.67
2022-09-04T19:12:50.441Z,24.60
2022-09-04T19:15:49.784Z,24.52
2022-09-04T19:18:30.434Z,24.36
2022-09-04T19:21:11.211Z,24.34
2022-09-04T19:23:51.201Z,24.26
2022-09-04T19:26:29.764Z,24.23
2022-09-04T19:29:14.231Z,24.07
2022-09-04T19:32:04.292Z,24.02
2022-09-04T19:35:06.477Z,24.07
2022-09-04T19:40:39.777Z,23.95
2022-09-04T19:45:57.834Z,23.87
2022-09-04T19:46:09.469Z,23.91
2022-09-04T19:47:28.879Z,23.85
2022-09-04T19:53:20.109Z,23.70
2022-09-04T19:54:14.026Z,23.63
2022-09-04T19:56:53.051Z,23.52
2022-09-04T19:59:46.035Z,23.54
2022-09-04T20:02:31.847Z,23.53
2022-09-04T20:05:06.490Z,23.38
2022-09-04T20:07:55.186Z,23.44
2022-09-04T20:10:47.670Z,23.28
2022-09-04T20:13:35.527Z,23.33
2022-09-04T20:16:28.751Z,23.28
2022-09-04T20:19:48.134Z,23.29
2022-09-04T20:22:54.461Z,23.27
2022-09-04T20:25:55.951Z,23.24
2022-09-04T20:29:06.180Z,23.16
2022-09-04T20:32:00.088Z,23.07
2022-09-04T20:34:50.127Z,23.10
2022-09-04T20:37:43.670Z,22.97
2022-09-04T20:40:33.825Z,22.92
2022-09-04T20:43:03.860Z,22.82
2022-09-04T20:52:44.449Z,22.80
2022-09-04T20:52:53.518Z,22.77
2022-09-04T20:52:54.192Z,22.80
2022-09-04T20:54:58.849Z,22.75
2022-09-04T21:03:09.327Z,22.67
2022-09-04T21:03:19.735Z,22.48
2022-09-04T21:04:42.389Z,22.52
2022-09-04T21:07:52.426Z,22.28
2022-09-04T21:10:48.541Z,22.32
2022-09-04T21:13:29.357Z,22.14
2022-09-04T21:16:07.243Z,22.18
2022-09-04T21:19:27.731Z,22.18
2022-09-04T21:22:33.087Z,22.12
2022-09-04T21:25:28.099Z,21.96
2022-09-04T21:28:26.481Z,22.06
2022-09-04T21:31:19.608Z,21.96
2022-09-04T21:34:21.186Z,22.02
2022-09-04T21:37:08.854Z,21.96
2022-09-04T21:40:50.494Z,21.93
2022-09-04T21:43:19.390Z,21.90
2022-09-04T21:46:12.849Z,21.83
2022-09-04T21:49:26.743Z,21.82
2022-09-04T21:52:09.297Z,21.87
2022-09-04T21:59:49.287Z,21.80
2022-09-04T22:02:35.693Z,21.87
2022-09-04T22:02:40.452Z,21.77
2022-09-04T22:05:01.674Z,21.74
2022-09-04T22:12:09.058Z,21.66
2022-09-04T22:13:42.735Z,21.60
2022-09-04T22:14:09.653Z,21.53
2022-09-04T22:17:15.031Z,21.48
2022-09-04T22:19:51.705Z,21.51
2022-09-04T22:22:45.239Z,21.49
2022-09-04T22:26:17.107Z,21.44
2022-09-04T22:29:14.338Z,21.38
2022-09-04T22:32:20.885Z,21.32
2022-09-04T22:35:36.524Z,21.24
2022-09-04T22:38:31.298Z,21.18
2022-09-04T22:41:32.674Z,20.98
2022-09-04T22:44:51.686Z,21.05
2022-09-04T22:48:06.662Z,21.00
2022-09-04T22:50:54.946Z,20.98
2022-09-04T22:53:43.820Z,20.99
2022-09-04T22:56:24.064Z,20.94
2022-09-04T22:59:38.057Z,20.80
2022-09-04T23:10:38.420Z,20.71
2022-09-04T23:13:47.438Z,20.63
2022-09-04T23:13:57.316Z,20.69
2022-09-04T23:16:32.299Z,20.64
2022-09-04T23:24:54.846Z,20.54
2022-09-04T23:26:42.857Z,20.45
2022-09-04T23:26:59.169Z,20.37
2022-09-04T23:29:50.018Z,20.26
2022-09-04T23:33:06.763Z,20.29
2022-09-04T23:36:02.317Z,20.28
2022-09-04T23:38:57.278Z,20.26
2022-09-04T23:41:52.596Z,20.29
2022-09-04T23:44:50.624Z,20.23
2022-09-04T23:47:48.162Z,20.29
2022-09-04T23:50:30.167Z,20.30
2022-09-04T23:53:15.748Z,20.26
2022-09-04T23:56:05.612Z,20.19
2022-09-04T23:59:29.097Z,20.16
